sensor_id;sensor_type;location;lat;lon;timestamp;temperature;humidity
9973;DHT22;5027;53.560;10.062;2022-07-10T00:02:18;19.50;99.90
9973;DHT22;5027;53.560;10.062;2022-07-10T00:04:45;19.50;99.90
9973;DHT22;5027;53.560;10.062;2022-07-10T00:07:12;19.50;99.90
9973;DHT22;5027;53.560;10.062;2022-07-10T00:09:38;19.50;99.90
9973;DHT22;5027;53.560;10.062;2022-07-10T00:12:05;19.40;99.90
9973;DHT22;5027;53.560;10.062;2022-07-10T00:14:32;19.50;99.90
9973;DHT22;5027;53.560;10.062;2022-07-10T00:16:58;19.50;99.90
9973;DHT22;5027;53.560;10.062;2022-07-10T00:19:25;19.40;99.90
9973;DHT22;5027;53.560;10.062;2022-07-10T00:21:52;19.40;99.90
9973;DHT22;5027;53.560;10.062;2022-07-10T00:24:18;19.40;99.90
9973;DHT22;5027;53.560;10.062;2022-07-10T00:26:45;19.40;99.90
9973;DHT22;5027;53.560;10.062;2022-07-10T00:29:14;19.30;99.90
9973;DHT22;5027;53.560;10.062;2022-07-10T00:31:41;19.30;99.90
9973;DHT22;5027;53.560;10.062;2022-07-10T00:34:08;19.40;99.90
9973;DHT22;5027;53.560;10.062;2022-07-10T00:36:35;19.40;99.90
9973;DHT22;5027;53.560;10.062;2022-07-10T00:39:02;19.40;99.90
9973;DHT22;5027;53.560;10.062;2022-07-10T00:41:28;19.30;99.90
9973;DHT22;5027;53.560;10.062;2022-07-10T00:43:57;19.40;99.90
9973;DHT22;5027;53.560;10.062;2022-07-10T00:46:25;19.40;99.90
9973;DHT22;5027;53.560;10.062;2022-07-10T00:48:53;19.40;99.90
9973;DHT22;5027;53.560;10.062;2022-07-10T00:51:22;19.40;99.90
9973;DHT22;5027;53.560;10.062;2022-07-10T00:53:50;19.40;99.90
9973;DHT22;5027;53.560;10.062;2022-07-10T00:56:19;19.40;99.90
9973;DHT22;5027;53.560;10.062;2022-07-10T00:58:46;19.30;99.90
9973;DHT22;5027;53.560;10.062;2022-07-10T01:01:13;19.30;99.90
9973;DHT22;5027;53.560;10.062;2022-07-10T01:03:40;19.20;99.90
9973;DHT22;5027;53.560;10.062;2022-07-10T01:06:07;19.20;99.90
9973;DHT22;5027;53.560;10.062;2022-07-10T01:08:34;19.20;99.90
9973;DHT22;5027;53.560;10.062;2022-07-10T01:11:01;19.20;99.90
9973;DHT22;5027;53.560;10.062;2022-07-10T01:13:28;19.20;99.90
9973;DHT22;5027;53.560;10.062;2022-07-10T01:15:59;19.20;99.90
9973;DHT22;5027;53.560;10.062;2022-07-10T01:18:26;19.20;99.90
9973;DHT22;5027;53.560;10.062;2022-07-10T01:20:54;19.30;99.90
9973;DHT22;5027;53.560;10.062;2022-07-10T01:23:21;19.20;99.90
9973;DHT22;5027;53.560;10.062;2022-07-10T01:25:49;19.20;99.90
9973;DHT22;5027;53.560;10.062;2022-07-10T01:28:16;19.20;99.90
9973;DHT22;5027;53.560;10.062;2022-07-10T01:30:43;19.30;99.90
9973;DHT22;5027;53.560;10.062;2022-07-10T01:33:10;19.30;99.90
9973;DHT22;5027;53.560;10.062;2022-07-10T01:35:37;19.20;99.90
9973;DHT22;5027;53.560;10.062;2022-07-10T01:38:04;19.20;99.90
9973;DHT22;5027;53.560;10.062;2022-07-10T01:40:31;19.20;99.90
9973;DHT22;5027;53.560;10.062;2022-07-10T01:42:58;19.20;99.90
9973;DHT22;5027;53.560;10.062;2022-07-10T01:45:25;19.20;99.90
9973;DHT22;5027;53.560;10.062;2022-07-10T01:47:52;19.10;99.90
9973;DHT22;5027;53.560;10.062;2022-07-10T01:50:19;19.10;99.90
9973;DHT22;5027;53.560;10.062;2022-07-10T01:52:45;19.00;99.90
9973;DHT22;5027;53.560;10.062;2022-07-10T01:55:12;19.00;99.90
9973;DHT22;5027;53.560;10.062;2022-07-10T01:57:39;19.00;99.90
9973;DHT22;5027;53.560;10.062;2022-07-10T02:00:06;19.00;99.90
9973;DHT22;5027;53.560;10.062;2022-07-10T02:02:37;19.00;99.90
9973;DHT22;5027;53.560;10.062;2022-07-10T02:05:05;19.00;99.90
9973;DHT22;5027;53.560;10.062;2022-07-10T02:07:31;19.00;99.90
9973;DHT22;5027;53.560;10.062;2022-07-10T02:09:58;19.00;99.90
9973;DHT22;5027;53.560;10.062;2022-07-10T02:12:25;19.00;99.90
9973;DHT22;5027;53.560;10.062;2022-07-10T02:14:51;19.10;99.90
9973;DHT22;5027;53.560;10.062;2022-07-10T02:17:18;19.00;99.90
9973;DHT22;5027;53.560;10.062;2022-07-10T02:19:45;19.00;99.90
9973;DHT22;5027;53.560;10.062;2022-07-10T02:22:11;19.00;99.90
9973;DHT22;5027;53.560;10.062;2022-07-10T02:24:38;19.00;99.90
9973;DHT22;5027;53.560;10.062;2022-07-10T02:27:05;19.00;99.90
9973;DHT22;5027;53.560;10.062;2022-07-10T02:29:32;19.00;99.90
9973;DHT22;5027;53.560;10.062;2022-07-10T02:31:58;19.00;99.90
9973;DHT22;5027;53.560;10.062;2022-07-10T02:34:26;19.00;99.90
9973;DHT22;5027;53.560;10.062;2022-07-10T02:36:52;19.10;99.90
9973;DHT22;5027;53.560;10.062;2022-07-10T02:39:19;19.10;99.90
9973;DHT22;5027;53.560;10.062;2022-07-10T02:41:46;19.10;99.90
9973;DHT22;5027;53.560;10.062;2022-07-10T02:44:12;19.10;99.90
9973;DHT22;5027;53.560;10.062;2022-07-10T02:46:39;19.10;99.90
9973;DHT22;5027;53.560;10.062;2022-07-10T02:49:06;19.00;99.90
9973;DHT22;5027;53.560;10.062;2022-07-10T02:51:32;19.00;99.90
9973;DHT22;5027;53.560;10.062;2022-07-10T02:53:59;18.90;99.90
9973;DHT22;5027;53.560;10.062;2022-07-10T02:56:26;18.90;99.90
9973;DHT22;5027;53.560;10.062;2022-07-10T02:58:53;18.90;99.90
9973;DHT22;5027;53.560;10.062;2022-07-10T03:01:19;18.90;99.90
9973;DHT22;5027;53.560;10.062;2022-07-10T03:03:46;18.90;99.90
9973;DHT22;5027;53.560;10.062;2022-07-10T03:06:13;18.90;99.90
9973;DHT22;5027;53.560;10.062;2022-07-10T03:08:40;18.90;99.90
9973;DHT22;5027;53.560;10.062;2022-07-10T03:11:09;18.90;99.90
9973;DHT22;5027;53.560;10.062;2022-07-10T03:13:36;18.90;99.90
9973;DHT22;5027;53.560;10.062;2022-07-10T03:16:03;19.00;99.90
9973;DHT22;5027;53.560;10.062;2022-07-10T03:18:30;18.90;99.90
9973;DHT22;5027;53.560;10.062;2022-07-10T03:20:56;18.90;99.90
9973;DHT22;5027;53.560;10.062;2022-07-10T03:23:23;19.00;99.90
9973;DHT22;5027;53.560;10.062;2022-07-10T03:25:50;19.00;99.90
9973;DHT22;5027;53.560;10.062;2022-07-10T03:28:21;19.00;99.90
9973;DHT22;5027;53.560;10.062;2022-07-10T03:30:47;18.90;99.90
9973;DHT22;5027;53.560;10.062;2022-07-10T03:33:14;19.00;99.90
9973;DHT22;5027;53.560;10.062;2022-07-10T03:35:41;18.90;99.90
9973;DHT22;5027;53.560;10.062;2022-07-10T03:38:07;18.90;99.90
9973;DHT22;5027;53.560;10.062;2022-07-10T03:40:34;18.90;99.90
9973;DHT22;5027;53.560;10.062;2022-07-10T03:43:01;18.90;99.90
9973;DHT22;5027;53.560;10.062;2022-07-10T03:45:28;18.90;99.90
9973;DHT22;5027;53.560;10.062;2022-07-10T03:47:54;18.90;99.90
9973;DHT22;5027;53.560;10.062;2022-07-10T03:50:21;18.90;99.90
9973;DHT22;5027;53.560;10.062;2022-07-10T03:52:48;18.90;99.90
9973;DHT22;5027;53.560;10.062;2022-07-10T03:55:14;19.00;99.90
9973;DHT22;5027;53.560;10.062;2022-07-10T03:57:41;18.90;99.90
9973;DHT22;5027;53.560;10.062;2022-07-10T04:00:25;19.00;99.90
9973;DHT22;5027;53.560;10.062;2022-07-10T04:02:59;19.00;99.90
9973;DHT22;5027;53.560;10.062;2022-07-10T04:05:27;19.00;99.90
9973;DHT22;5027;53.560;10.062;2022-07-10T04:07:54;19.00;99.90
9973;DHT22;5027;53.560;10.062;2022-07-10T04:10:24;19.00;99.90
9973;DHT22;5027;53.560;10.062;2022-07-10T04:12:51;19.00;99.90
9973;DHT22;5027;53.560;10.062;2022-07-10T04:15:19;19.10;99.90
9973;DHT22;5027;53.560;10.062;2022-07-10T04:17:47;19.10;99.90
9973;DHT22;5027;53.560;10.062;2022-07-10T04:20:14;19.20;99.90
9973;DHT22;5027;53.560;10.062;2022-07-10T04:22:42;19.20;99.90
9973;DHT22;5027;53.560;10.062;2022-07-10T04:25:10;19.00;99.90
9973;DHT22;5027;53.560;10.062;2022-07-10T04:27:37;19.10;99.90
9973;DHT22;5027;53.560;10.062;2022-07-10T04:30:04;19.00;99.90
9973;DHT22;5027;53.560;10.062;2022-07-10T04:32:32;19.10;99.90
9973;DHT22;5027;53.560;10.062;2022-07-10T04:34:59;19.10;99.90
9973;DHT22;5027;53.560;10.062;2022-07-10T04:37:27;19.10;99.90
9973;DHT22;5027;53.560;10.062;2022-07-10T04:39:55;19.10;99.90
9973;DHT22;5027;53.560;10.062;2022-07-10T04:42:25;19.20;99.90
9973;DHT22;5027;53.560;10.062;2022-07-10T04:44:52;19.20;99.90
9973;DHT22;5027;53.560;10.062;2022-07-10T04:47:19;19.20;99.90
9973;DHT22;5027;53.560;10.062;2022-07-10T04:49:46;19.20;99.90
9973;DHT22;5027;53.560;10.062;2022-07-10T04:52:12;19.20;99.90
9973;DHT22;5027;53.560;10.062;2022-07-10T04:54:39;19.10;99.90
9973;DHT22;5027;53.560;10.062;2022-07-10T04:57:06;19.10;99.90
9973;DHT22;5027;53.560;10.062;2022-07-10T04:59:32;19.10;99.90
9973;DHT22;5027;53.560;10.062;2022-07-10T05:01:59;19.10;99.90
9973;DHT22;5027;53.560;10.062;2022-07-10T05:04:26;19.10;99.90
9973;DHT22;5027;53.560;10.062;2022-07-10T05:06:53;19.10;99.90
9973;DHT22;5027;53.560;10.062;2022-07-10T05:09:19;19.10;99.90
9973;DHT22;5027;53.560;10.062;2022-07-10T05:11:46;19.10;99.90
9973;DHT22;5027;53.560;10.062;2022-07-10T05:14:13;19.10;99.90
9973;DHT22;5027;53.560;10.062;2022-07-10T05:16:40;19.10;99.90
9973;DHT22;5027;53.560;10.062;2022-07-10T05:19:07;19.10;99.90
9973;DHT22;5027;53.560;10.062;2022-07-10T05:21:34;19.20;99.90
9973;DHT22;5027;53.560;10.062;2022-07-10T05:24:01;19.20;99.90
9973;DHT22;5027;53.560;10.062;2022-07-10T05:26:27;19.20;99.90
9973;DHT22;5027;53.560;10.062;2022-07-10T05:28:54;19.10;99.90
9973;DHT22;5027;53.560;10.062;2022-07-10T05:31:21;19.10;99.90
9973;DHT22;5027;53.560;10.062;2022-07-10T05:33:48;19.10;99.90
9973;DHT22;5027;53.560;10.062;2022-07-10T05:36:15;19.10;99.90
9973;DHT22;5027;53.560;10.062;2022-07-10T05:38:41;19.20;99.90
9973;DHT22;5027;53.560;10.062;2022-07-10T05:41:08;19.20;99.90
9973;DHT22;5027;53.560;10.062;2022-07-10T05:43:35;19.00;99.90
9973;DHT22;5027;53.560;10.062;2022-07-10T05:46:02;19.00;99.90
9973;DHT22;5027;53.560;10.062;2022-07-10T05:48:28;19.20;99.90
9973;DHT22;5027;53.560;10.062;2022-07-10T05:50:55;19.30;99.90
9973;DHT22;5027;53.560;10.062;2022-07-10T05:53:42;19.40;99.90
9973;DHT22;5027;53.560;10.062;2022-07-10T05:56:09;19.20;99.90
9973;DHT22;5027;53.560;10.062;2022-07-10T05:58:36;19.40;99.90
9973;DHT22;5027;53.560;10.062;2022-07-10T06:01:03;19.50;99.90
9973;DHT22;5027;53.560;10.062;2022-07-10T06:03:30;19.50;99.90
9973;DHT22;5027;53.560;10.062;2022-07-10T06:05:58;19.40;99.90
9973;DHT22;5027;53.560;10.062;2022-07-10T06:08:26;19.60;99.90
9973;DHT22;5027;53.560;10.062;2022-07-10T06:10:53;19.80;99.90
9973;DHT22;5027;53.560;10.062;2022-07-10T06:13:20;19.70;99.90
9973;DHT22;5027;53.560;10.062;2022-07-10T06:15:47;19.70;99.90
9973;DHT22;5027;53.560;10.062;2022-07-10T06:18:14;19.60;99.90
9973;DHT22;5027;53.560;10.062;2022-07-10T06:20:41;19.40;99.90
9973;DHT22;5027;53.560;10.062;2022-07-10T06:23:08;19.60;99.90
9973;DHT22;5027;53.560;10.062;2022-07-10T06:25:35;19.60;99.90
9973;DHT22;5027;53.560;10.062;2022-07-10T06:28:02;19.70;99.90
9973;DHT22;5027;53.560;10.062;2022-07-10T06:30:28;19.60;99.90
9973;DHT22;5027;53.560;10.062;2022-07-10T06:32:55;19.50;99.90
9973;DHT22;5027;53.560;10.062;2022-07-10T06:35:22;19.50;99.90
9973;DHT22;5027;53.560;10.062;2022-07-10T06:37:49;19.60;99.90
9973;DHT22;5027;53.560;10.062;2022-07-10T06:40:17;19.80;99.90
9973;DHT22;5027;53.560;10.062;2022-07-10T06:42:44;20.10;99.90
9973;DHT22;5027;53.560;10.062;2022-07-10T06:45:11;19.90;99.90
9973;DHT22;5027;53.560;10.062;2022-07-10T06:47:39;19.70;99.90
9973;DHT22;5027;53.560;10.062;2022-07-10T06:50:26;19.60;99.90
9973;DHT22;5027;53.560;10.062;2022-07-10T06:52:57;19.60;99.90
9973;DHT22;5027;53.560;10.062;2022-07-10T06:55:25;19.70;99.90
9973;DHT22;5027;53.560;10.062;2022-07-10T06:57:52;19.80;99.90
9973;DHT22;5027;53.560;10.062;2022-07-10T07:00:19;19.70;99.90
9973;DHT22;5027;53.560;10.062;2022-07-10T07:02:46;19.80;99.90
9973;DHT22;5027;53.560;10.062;2022-07-10T07:05:13;19.90;99.90
9973;DHT22;5027;53.560;10.062;2022-07-10T07:07:40;19.90;99.90
9973;DHT22;5027;53.560;10.062;2022-07-10T07:10:08;19.80;99.90
9973;DHT22;5027;53.560;10.062;2022-07-10T07:12:36;19.90;99.90
9973;DHT22;5027;53.560;10.062;2022-07-10T07:15:03;19.70;99.90
9973;DHT22;5027;53.560;10.062;2022-07-10T07:17:30;19.90;99.90
9973;DHT22;5027;53.560;10.062;2022-07-10T07:20:13;20.00;99.90
9973;DHT22;5027;53.560;10.062;2022-07-10T07:23:09;19.70;99.90
9973;DHT22;5027;53.560;10.062;2022-07-10T07:25:39;19.50;99.90
9973;DHT22;5027;53.560;10.062;2022-07-10T07:28:09;19.50;99.90
9973;DHT22;5027;53.560;10.062;2022-07-10T07:30:37;19.60;99.90
9973;DHT22;5027;53.560;10.062;2022-07-10T07:33:04;19.90;99.90
9973;DHT22;5027;53.560;10.062;2022-07-10T07:35:31;19.70;99.90
9973;DHT22;5027;53.560;10.062;2022-07-10T07:37:58;19.60;99.90
9973;DHT22;5027;53.560;10.062;2022-07-10T07:40:24;19.60;99.90
9973;DHT22;5027;53.560;10.062;2022-07-10T07:42:55;19.60;99.90
9973;DHT22;5027;53.560;10.062;2022-07-10T07:45:22;19.70;99.90
9973;DHT22;5027;53.560;10.062;2022-07-10T07:47:56;19.70;99.90
9973;DHT22;5027;53.560;10.062;2022-07-10T07:50:28;20.00;99.90
9973;DHT22;5027;53.560;10.062;2022-07-10T07:52:55;20.00;99.90
9973;DHT22;5027;53.560;10.062;2022-07-10T07:55:23;20.30;99.90
9973;DHT22;5027;53.560;10.062;2022-07-10T07:57:54;20.50;99.90
9973;DHT22;5027;53.560;10.062;2022-07-10T08:00:22;20.40;99.90
9973;DHT22;5027;53.560;10.062;2022-07-10T08:02:50;20.30;99.90
9973;DHT22;5027;53.560;10.062;2022-07-10T08:05:18;20.60;99.90
9973;DHT22;5027;53.560;10.062;2022-07-10T08:07:47;20.60;99.90
9973;DHT22;5027;53.560;10.062;2022-07-10T08:10:16;20.40;99.90
9973;DHT22;5027;53.560;10.062;2022-07-10T08:12:44;20.50;99.90
9973;DHT22;5027;53.560;10.062;2022-07-10T08:15:16;20.20;99.90
9973;DHT22;5027;53.560;10.062;2022-07-10T08:17:46;20.20;99.90
9973;DHT22;5027;53.560;10.062;2022-07-10T08:20:14;20.40;99.90
9973;DHT22;5027;53.560;10.062;2022-07-10T08:22:41;20.40;99.90
9973;DHT22;5027;53.560;10.062;2022-07-10T08:25:09;20.30;99.90
9973;DHT22;5027;53.560;10.062;2022-07-10T08:27:36;20.60;99.90
9973;DHT22;5027;53.560;10.062;2022-07-10T08:30:04;20.40;99.90
9973;DHT22;5027;53.560;10.062;2022-07-10T08:32:31;20.20;99.90
9973;DHT22;5027;53.560;10.062;2022-07-10T08:34:58;20.10;99.90
9973;DHT22;5027;53.560;10.062;2022-07-10T08:37:25;20.10;99.90
9973;DHT22;5027;53.560;10.062;2022-07-10T08:39:52;20.20;99.90
9973;DHT22;5027;53.560;10.062;2022-07-10T08:42:19;20.20;99.90
9973;DHT22;5027;53.560;10.062;2022-07-10T08:44:47;20.10;99.90
9973;DHT22;5027;53.560;10.062;2022-07-10T08:47:14;20.20;99.90
9973;DHT22;5027;53.560;10.062;2022-07-10T08:49:46;20.40;99.90
9973;DHT22;5027;53.560;10.062;2022-07-10T08:52:27;20.40;99.90
9973;DHT22;5027;53.560;10.062;2022-07-10T08:54:57;20.30;99.90
9973;DHT22;5027;53.560;10.062;2022-07-10T08:57:24;20.30;99.90
9973;DHT22;5027;53.560;10.062;2022-07-10T08:59:52;20.30;99.90
9973;DHT22;5027;53.560;10.062;2022-07-10T09:02:20;20.30;99.90
9973;DHT22;5027;53.560;10.062;2022-07-10T09:04:47;20.30;99.90
9973;DHT22;5027;53.560;10.062;2022-07-10T09:07:14;20.50;99.90
9973;DHT22;5027;53.560;10.062;2022-07-10T09:09:54;20.60;99.90
9973;DHT22;5027;53.560;10.062;2022-07-10T09:12:22;20.40;99.90
9973;DHT22;5027;53.560;10.062;2022-07-10T09:14:50;20.40;99.90
9973;DHT22;5027;53.560;10.062;2022-07-10T09:17:18;20.50;99.90
9973;DHT22;5027;53.560;10.062;2022-07-10T09:19:45;20.60;99.90
9973;DHT22;5027;53.560;10.062;2022-07-10T09:22:12;20.50;99.40
9973;DHT22;5027;53.560;10.062;2022-07-10T09:24:45;20.70;99.90
9973;DHT22;5027;53.560;10.062;2022-07-10T09:27:14;20.80;99.90
9973;DHT22;5027;53.560;10.062;2022-07-10T09:29:52;20.60;99.90
9973;DHT22;5027;53.560;10.062;2022-07-10T09:32:22;20.50;99.80
9973;DHT22;5027;53.560;10.062;2022-07-10T09:34:50;20.30;99.90
9973;DHT22;5027;53.560;10.062;2022-07-10T09:37:39;20.50;99.90
9973;DHT22;5027;53.560;10.062;2022-07-10T09:40:08;20.70;99.90
9973;DHT22;5027;53.560;10.062;2022-07-10T09:42:36;20.60;99.90
9973;DHT22;5027;53.560;10.062;2022-07-10T09:47:40;20.60;99.90
9973;DHT22;5027;53.560;10.062;2022-07-10T09:52:50;20.80;99.90
9973;DHT22;5027;53.560;10.062;2022-07-10T09:55:23;20.70;99.90
9973;DHT22;5027;53.560;10.062;2022-07-10T09:57:56;20.70;99.10
9973;DHT22;5027;53.560;10.062;2022-07-10T10:00:26;20.60;99.50
9973;DHT22;5027;53.560;10.062;2022-07-10T10:03:02;20.80;99.90
9973;DHT22;5027;53.560;10.062;2022-07-10T10:05:43;20.90;99.90
9973;DHT22;5027;53.560;10.062;2022-07-10T10:08:12;20.90;99.90
9973;DHT22;5027;53.560;10.062;2022-07-10T10:10:47;20.90;99.90
9973;DHT22;5027;53.560;10.062;2022-07-10T10:13:22;20.90;99.90
9973;DHT22;5027;53.560;10.062;2022-07-10T10:15:53;20.80;99.90
9973;DHT22;5027;53.560;10.062;2022-07-10T10:18:26;20.80;99.90
9973;DHT22;5027;53.560;10.062;2022-07-10T10:20:54;20.80;99.90
9973;DHT22;5027;53.560;10.062;2022-07-10T10:23:23;20.80;99.50
9973;DHT22;5027;53.560;10.062;2022-07-10T10:25:55;20.90;99.90
9973;DHT22;5027;53.560;10.062;2022-07-10T10:28:24;20.90;99.50
9973;DHT22;5027;53.560;10.062;2022-07-10T10:30:59;20.90;99.30
9973;DHT22;5027;53.560;10.062;2022-07-10T10:36:04;21.00;99.90
9973;DHT22;5027;53.560;10.062;2022-07-10T10:41:23;21.00;99.10
9973;DHT22;5027;53.560;10.062;2022-07-10T10:46:35;21.10;98.70
9973;DHT22;5027;53.560;10.062;2022-07-10T10:49:06;21.10;99.90
9973;DHT22;5027;53.560;10.062;2022-07-10T10:51:56;21.20;99.90
9973;DHT22;5027;53.560;10.062;2022-07-10T10:54:23;21.20;99.90
9973;DHT22;5027;53.560;10.062;2022-07-10T10:57:14;21.20;99.90
9973;DHT22;5027;53.560;10.062;2022-07-10T10:59:48;21.20;99.90
9973;DHT22;5027;53.560;10.062;2022-07-10T11:02:31;21.10;99.90
9973;DHT22;5027;53.560;10.062;2022-07-10T11:07:57;21.20;97.90
9973;DHT22;5027;53.560;10.062;2022-07-10T11:10:33;21.20;98.40
9973;DHT22;5027;53.560;10.062;2022-07-10T11:13:12;21.10;97.20
9973;DHT22;5027;53.560;10.062;2022-07-10T11:18:17;21.20;99.90
9973;DHT22;5027;53.560;10.062;2022-07-10T11:20:46;21.20;99.90
9973;DHT22;5027;53.560;10.062;2022-07-10T11:26:13;21.20;98.70
9973;DHT22;5027;53.560;10.062;2022-07-10T11:31:19;21.20;98.30
9973;DHT22;5027;53.560;10.062;2022-07-10T11:33:49;21.20;97.50
9973;DHT22;5027;53.560;10.062;2022-07-10T11:36:30;21.30;99.90
9973;DHT22;5027;53.560;10.062;2022-07-10T11:39:06;21.30;99.90
9973;DHT22;5027;53.560;10.062;2022-07-10T11:41:41;21.20;99.90
9973;DHT22;5027;53.560;10.062;2022-07-10T11:44:17;21.30;99.90
9973;DHT22;5027;53.560;10.062;2022-07-10T11:46:45;21.20;99.70
9973;DHT22;5027;53.560;10.062;2022-07-10T11:49:15;21.30;99.90
9973;DHT22;5027;53.560;10.062;2022-07-10T11:51:42;21.30;98.90
9973;DHT22;5027;53.560;10.062;2022-07-10T11:54:12;21.40;98.10
9973;DHT22;5027;53.560;10.062;2022-07-10T11:56:40;21.30;99.90
9973;DHT22;5027;53.560;10.062;2022-07-10T11:59:12;21.40;98.70
9973;DHT22;5027;53.560;10.062;2022-07-10T12:01:45;21.40;99.90
9973;DHT22;5027;53.560;10.062;2022-07-10T12:04:14;21.40;99.90
9973;DHT22;5027;53.560;10.062;2022-07-10T12:06:43;21.20;99.90
9973;DHT22;5027;53.560;10.062;2022-07-10T12:09:12;21.30;99.50
9973;DHT22;5027;53.560;10.062;2022-07-10T12:11:40;21.30;98.00
9973;DHT22;5027;53.560;10.062;2022-07-10T12:14:19;21.40;99.90
9973;DHT22;5027;53.560;10.062;2022-07-10T12:16:47;21.30;99.90
9973;DHT22;5027;53.560;10.062;2022-07-10T12:19:17;21.30;99.90
9973;DHT22;5027;53.560;10.062;2022-07-10T12:21:46;21.30;99.90
9973;DHT22;5027;53.560;10.062;2022-07-10T12:24:16;21.20;99.90
9973;DHT22;5027;53.560;10.062;2022-07-10T12:26:44;21.30;99.90
9973;DHT22;5027;53.560;10.062;2022-07-10T12:29:21;21.20;99.90
9973;DHT22;5027;53.560;10.062;2022-07-10T12:31:51;21.20;99.90
9973;DHT22;5027;53.560;10.062;2022-07-10T12:34:18;21.20;99.20
9973;DHT22;5027;53.560;10.062;2022-07-10T12:36:47;21.30;99.60
9973;DHT22;5027;53.560;10.062;2022-07-10T12:39:15;21.30;99.90
9973;DHT22;5027;53.560;10.062;2022-07-10T12:41:59;21.30;98.80
9973;DHT22;5027;53.560;10.062;2022-07-10T12:44:44;21.30;99.30
9973;DHT22;5027;53.560;10.062;2022-07-10T12:47:15;21.30;98.60
9973;DHT22;5027;53.560;10.062;2022-07-10T12:49:57;21.30;99.30
9973;DHT22;5027;53.560;10.062;2022-07-10T12:52:36;21.30;99.90
9973;DHT22;5027;53.560;10.062;2022-07-10T12:55:20;21.30;99.90
9973;DHT22;5027;53.560;10.062;2022-07-10T12:58:14;21.20;99.90
9973;DHT22;5027;53.560;10.062;2022-07-10T13:00:45;21.20;99.90
9973;DHT22;5027;53.560;10.062;2022-07-10T13:03:20;21.20;99.30
9973;DHT22;5027;53.560;10.062;2022-07-10T13:05:48;21.20;99.90
9973;DHT22;5027;53.560;10.062;2022-07-10T13:08:18;21.20;99.40
9973;DHT22;5027;53.560;10.062;2022-07-10T13:10:56;21.30;99.90
9973;DHT22;5027;53.560;10.062;2022-07-10T13:13:25;21.20;99.90
9973;DHT22;5027;53.560;10.062;2022-07-10T13:15:51;21.20;99.80
9973;DHT22;5027;53.560;10.062;2022-07-10T13:18:25;21.20;99.90
9973;DHT22;5027;53.560;10.062;2022-07-10T13:20:54;21.20;99.50
9973;DHT22;5027;53.560;10.062;2022-07-10T13:23:27;21.20;99.20
9973;DHT22;5027;53.560;10.062;2022-07-10T13:25:55;21.10;99.20
9973;DHT22;5027;53.560;10.062;2022-07-10T13:28:22;21.20;99.90
9973;DHT22;5027;53.560;10.062;2022-07-10T13:30:49;21.20;99.60
9973;DHT22;5027;53.560;10.062;2022-07-10T13:33:16;21.20;99.40
9973;DHT22;5027;53.560;10.062;2022-07-10T13:35:43;21.20;99.90
9973;DHT22;5027;53.560;10.062;2022-07-10T13:38:10;21.20;99.20
9973;DHT22;5027;53.560;10.062;2022-07-10T13:40:43;21.10;99.90
9973;DHT22;5027;53.560;10.062;2022-07-10T13:43:11;21.10;99.40
9973;DHT22;5027;53.560;10.062;2022-07-10T13:45:39;21.20;99.90
9973;DHT22;5027;53.560;10.062;2022-07-10T13:48:11;21.20;99.90
9973;DHT22;5027;53.560;10.062;2022-07-10T13:50:42;21.20;99.90
9973;DHT22;5027;53.560;10.062;2022-07-10T13:53:09;21.20;99.90
9973;DHT22;5027;53.560;10.062;2022-07-10T13:55:37;21.20;99.90
9973;DHT22;5027;53.560;10.062;2022-07-10T13:58:04;21.20;99.80
9973;DHT22;5027;53.560;10.062;2022-07-10T14:00:31;21.20;99.90
9973;DHT22;5027;53.560;10.062;2022-07-10T14:02:58;21.20;99.30
9973;DHT22;5027;53.560;10.062;2022-07-10T14:05:27;21.10;99.30
9973;DHT22;5027;53.560;10.062;2022-07-10T14:07:53;21.20;99.90
9973;DHT22;5027;53.560;10.062;2022-07-10T14:10:20;21.20;99.90
9973;DHT22;5027;53.560;10.062;2022-07-10T14:12:47;21.20;99.90
9973;DHT22;5027;53.560;10.062;2022-07-10T14:15:14;21.20;99.40
9973;DHT22;5027;53.560;10.062;2022-07-10T14:17:41;21.20;99.90
9973;DHT22;5027;53.560;10.062;2022-07-10T14:20:09;21.30;99.90
9973;DHT22;5027;53.560;10.062;2022-07-10T14:22:36;21.20;99.30
9973;DHT22;5027;53.560;10.062;2022-07-10T14:25:06;21.20;99.90
9973;DHT22;5027;53.560;10.062;2022-07-10T14:27:35;21.30;99.90
9973;DHT22;5027;53.560;10.062;2022-07-10T14:30:02;21.20;99.90
9973;DHT22;5027;53.560;10.062;2022-07-10T14:32:29;21.20;99.60
9973;DHT22;5027;53.560;10.062;2022-07-10T14:34:56;21.20;99.90
9973;DHT22;5027;53.560;10.062;2022-07-10T14:37:23;21.20;99.60
9973;DHT22;5027;53.560;10.062;2022-07-10T14:39:50;21.20;99.90
9973;DHT22;5027;53.560;10.062;2022-07-10T14:42:17;21.20;99.80
9973;DHT22;5027;53.560;10.062;2022-07-10T14:44:43;21.20;99.90
9973;DHT22;5027;53.560;10.062;2022-07-10T14:47:10;21.30;99.90
9973;DHT22;5027;53.560;10.062;2022-07-10T14:49:37;21.20;99.90
9973;DHT22;5027;53.560;10.062;2022-07-10T14:52:04;21.20;99.90
9973;DHT22;5027;53.560;10.062;2022-07-10T14:54:31;21.20;99.90
9973;DHT22;5027;53.560;10.062;2022-07-10T14:56:57;21.20;99.80
9973;DHT22;5027;53.560;10.062;2022-07-10T14:59:29;21.30;99.90
9973;DHT22;5027;53.560;10.062;2022-07-10T15:01:57;21.30;99.90
9973;DHT22;5027;53.560;10.062;2022-07-10T15:04:24;21.20;99.90
9973;DHT22;5027;53.560;10.062;2022-07-10T15:06:51;21.30;99.90
9973;DHT22;5027;53.560;10.062;2022-07-10T15:09:18;21.40;99.90
9973;DHT22;5027;53.560;10.062;2022-07-10T15:11:44;21.30;99.90
9973;DHT22;5027;53.560;10.062;2022-07-10T15:14:11;21.30;99.90
9973;DHT22;5027;53.560;10.062;2022-07-10T15:16:37;21.40;99.90
9973;DHT22;5027;53.560;10.062;2022-07-10T15:19:04;21.30;99.90
9973;DHT22;5027;53.560;10.062;2022-07-10T15:21:31;21.30;99.90
9973;DHT22;5027;53.560;10.062;2022-07-10T15:23:58;21.20;99.90
9973;DHT22;5027;53.560;10.062;2022-07-10T15:26:25;21.20;99.90
9973;DHT22;5027;53.560;10.062;2022-07-10T15:28:52;21.20;99.90
9973;DHT22;5027;53.560;10.062;2022-07-10T15:31:19;21.20;99.90
9973;DHT22;5027;53.560;10.062;2022-07-10T15:33:45;21.20;99.90
9973;DHT22;5027;53.560;10.062;2022-07-10T15:36:12;21.30;99.90
9973;DHT22;5027;53.560;10.062;2022-07-10T15:38:40;21.40;99.90
9973;DHT22;5027;53.560;10.062;2022-07-10T15:41:07;21.30;99.90
9973;DHT22;5027;53.560;10.062;2022-07-10T15:43:34;21.20;99.90
9973;DHT22;5027;53.560;10.062;2022-07-10T15:46:01;21.20;99.90
9973;DHT22;5027;53.560;10.062;2022-07-10T15:48:28;21.20;99.90
9973;DHT22;5027;53.560;10.062;2022-07-10T15:50:54;21.20;99.90
9973;DHT22;5027;53.560;10.062;2022-07-10T15:53:21;21.20;99.90
9973;DHT22;5027;53.560;10.062;2022-07-10T15:55:48;21.30;99.90
9973;DHT22;5027;53.560;10.062;2022-07-10T15:58:15;21.30;99.90
9973;DHT22;5027;53.560;10.062;2022-07-10T16:00:43;21.30;99.90
9973;DHT22;5027;53.560;10.062;2022-07-10T16:03:09;21.20;99.50
9973;DHT22;5027;53.560;10.062;2022-07-10T16:05:36;21.20;99.40
9973;DHT22;5027;53.560;10.062;2022-07-10T16:08:03;21.30;99.90
9973;DHT22;5027;53.560;10.062;2022-07-10T16:10:31;21.30;99.90
9973;DHT22;5027;53.560;10.062;2022-07-10T16:12:58;21.30;99.90
9973;DHT22;5027;53.560;10.062;2022-07-10T16:15:25;21.30;99.60
9973;DHT22;5027;53.560;10.062;2022-07-10T16:17:52;21.20;99.60
9973;DHT22;5027;53.560;10.062;2022-07-10T16:20:18;21.30;99.90